sensor_id;sensor_type;location;lat;lon;timestamp;temperature;humidity
27858;DHT22;16852;51.446;6.528;2023-06-26T00:01:10;26.00;96.20
27858;DHT22;16852;51.446;6.528;2023-06-26T00:03:10;25.90;96.20
27858;DHT22;16852;51.446;6.528;2023-06-26T00:05:14;25.90;96.30
27858;DHT22;16852;51.446;6.528;2023-06-26T00:07:15;25.80;96.30
27858;DHT22;16852;51.446;6.528;2023-06-26T00:09:16;25.80;96.50
27858;DHT22;16852;51.446;6.528;2023-06-26T00:11:16;25.70;96.70
27858;DHT22;16852;51.446;6.528;2023-06-26T00:13:17;25.70;96.60
27858;DHT22;16852;51.446;6.528;2023-06-26T00:15:17;25.70;96.50
27858;DHT22;16852;51.446;6.528;2023-06-26T00:17:18;25.70;97.20
27858;DHT22;16852;51.446;6.528;2023-06-26T00:19:19;25.60;96.40
27858;DHT22;16852;51.446;6.528;2023-06-26T00:21:19;25.60;96.70
27858;DHT22;16852;51.446;6.528;2023-06-26T00:23:20;25.60;96.80
27858;DHT22;16852;51.446;6.528;2023-06-26T00:25:21;25.60;97.00
27858;DHT22;16852;51.446;6.528;2023-06-26T00:27:21;25.60;96.70
27858;DHT22;16852;51.446;6.528;2023-06-26T00:29:22;25.60;97.10
27858;DHT22;16852;51.446;6.528;2023-06-26T00:31:22;25.40;97.40
27858;DHT22;16852;51.446;6.528;2023-06-26T00:33:23;25.40;97.30
27858;DHT22;16852;51.446;6.528;2023-06-26T00:35:23;25.40;97.20
27858;DHT22;16852;51.446;6.528;2023-06-26T00:37:24;25.30;97.20
27858;DHT22;16852;51.446;6.528;2023-06-26T00:39:24;25.30;97.40
27858;DHT22;16852;51.446;6.528;2023-06-26T00:41:26;25.30;97.50
27858;DHT22;16852;51.446;6.528;2023-06-26T00:43:26;25.30;97.60
27858;DHT22;16852;51.446;6.528;2023-06-26T00:45:28;25.30;97.40
27858;DHT22;16852;51.446;6.528;2023-06-26T00:47:28;25.40;97.50
27858;DHT22;16852;51.446;6.528;2023-06-26T00:49:29;25.40;97.60
27858;DHT22;16852;51.446;6.528;2023-06-26T00:51:30;25.30;97.40
27858;DHT22;16852;51.446;6.528;2023-06-26T00:53:32;25.40;97.40
27858;DHT22;16852;51.446;6.528;2023-06-26T00:55:33;25.40;97.30
27858;DHT22;16852;51.446;6.528;2023-06-26T00:57:34;25.40;97.30
27858;DHT22;16852;51.446;6.528;2023-06-26T00:59:35;25.40;97.30
27858;DHT22;16852;51.446;6.528;2023-06-26T01:01:35;25.40;97.00
27858;DHT22;16852;51.446;6.528;2023-06-26T01:03:36;25.30;96.80
27858;DHT22;16852;51.446;6.528;2023-06-26T01:05:40;25.30;96.80
27858;DHT22;16852;51.446;6.528;2023-06-26T01:07:40;25.30;96.70
27858;DHT22;16852;51.446;6.528;2023-06-26T01:09:42;25.30;96.80
27858;DHT22;16852;51.446;6.528;2023-06-26T01:11:43;25.20;96.70
27858;DHT22;16852;51.446;6.528;2023-06-26T01:13:43;25.20;97.00
27858;DHT22;16852;51.446;6.528;2023-06-26T01:15:47;25.20;97.10
27858;DHT22;16852;51.446;6.528;2023-06-26T01:17:49;25.20;97.10
27858;DHT22;16852;51.446;6.528;2023-06-26T01:19:52;25.20;97.10
27858;DHT22;16852;51.446;6.528;2023-06-26T01:22:31;25.10;97.20
27858;DHT22;16852;51.446;6.528;2023-06-26T01:24:35;25.10;97.20
27858;DHT22;16852;51.446;6.528;2023-06-26T01:26:40;25.10;97.20
27858;DHT22;16852;51.446;6.528;2023-06-26T01:28:43;25.00;96.90
27858;DHT22;16852;51.446;6.528;2023-06-26T01:30:45;25.00;96.90
27858;DHT22;16852;51.446;6.528;2023-06-26T01:32:46;24.90;96.80
27858;DHT22;16852;51.446;6.528;2023-06-26T01:34:47;24.90;97.00
27858;DHT22;16852;51.446;6.528;2023-06-26T01:36:47;24.90;97.00
27858;DHT22;16852;51.446;6.528;2023-06-26T01:38:49;24.90;97.10
27858;DHT22;16852;51.446;6.528;2023-06-26T01:40:50;24.90;96.90
27858;DHT22;16852;51.446;6.528;2023-06-26T01:42:51;24.90;96.90
27858;DHT22;16852;51.446;6.528;2023-06-26T01:44:55;24.80;96.90
27858;DHT22;16852;51.446;6.528;2023-06-26T01:47:01;24.80;96.70
27858;DHT22;16852;51.446;6.528;2023-06-26T01:51:07;24.80;97.70
27858;DHT22;16852;51.446;6.528;2023-06-26T01:53:15;24.80;97.90
27858;DHT22;16852;51.446;6.528;2023-06-26T01:55:35;24.80;97.50
27858;DHT22;16852;51.446;6.528;2023-06-26T01:57:38;24.70;97.70
27858;DHT22;16852;51.446;6.528;2023-06-26T01:59:40;24.80;97.50
27858;DHT22;16852;51.446;6.528;2023-06-26T02:01:42;24.80;97.20
27858;DHT22;16852;51.446;6.528;2023-06-26T02:03:42;24.80;97.70
27858;DHT22;16852;51.446;6.528;2023-06-26T02:05:43;24.70;97.60
27858;DHT22;16852;51.446;6.528;2023-06-26T02:07:44;24.70;97.80
27858;DHT22;16852;51.446;6.528;2023-06-26T02:09:45;24.70;97.70
27858;DHT22;16852;51.446;6.528;2023-06-26T02:11:45;24.70;98.00
27858;DHT22;16852;51.446;6.528;2023-06-26T02:13:46;24.70;97.90
27858;DHT22;16852;51.446;6.528;2023-06-26T02:15:47;24.60;97.90
27858;DHT22;16852;51.446;6.528;2023-06-26T02:17:47;24.70;98.50
27858;DHT22;16852;51.446;6.528;2023-06-26T02:19:48;24.60;98.30
27858;DHT22;16852;51.446;6.528;2023-06-26T02:21:49;24.60;97.80
27858;DHT22;16852;51.446;6.528;2023-06-26T02:23:50;24.60;97.90
27858;DHT22;16852;51.446;6.528;2023-06-26T02:25:50;24.50;97.90
27858;DHT22;16852;51.446;6.528;2023-06-26T02:27:51;24.50;98.10
27858;DHT22;16852;51.446;6.528;2023-06-26T02:29:51;24.50;98.30
27858;DHT22;16852;51.446;6.528;2023-06-26T02:31:52;24.50;98.80
27858;DHT22;16852;51.446;6.528;2023-06-26T02:33:52;24.50;99.00
27858;DHT22;16852;51.446;6.528;2023-06-26T02:35:53;24.40;98.40
27858;DHT22;16852;51.446;6.528;2023-06-26T02:37:53;24.40;98.70
27858;DHT22;16852;51.446;6.528;2023-06-26T02:39:54;24.40;98.50
27858;DHT22;16852;51.446;6.528;2023-06-26T02:41:55;24.40;98.40
27858;DHT22;16852;51.446;6.528;2023-06-26T02:43:55;24.30;98.50
27858;DHT22;16852;51.446;6.528;2023-06-26T02:45:56;24.30;98.50
27858;DHT22;16852;51.446;6.528;2023-06-26T02:47:56;24.30;98.70
27858;DHT22;16852;51.446;6.528;2023-06-26T02:49:57;24.30;98.20
27858;DHT22;16852;51.446;6.528;2023-06-26T02:51:57;24.20;98.20
27858;DHT22;16852;51.446;6.528;2023-06-26T02:53:58;24.20;98.10
27858;DHT22;16852;51.446;6.528;2023-06-26T02:55:58;24.00;98.40
27858;DHT22;16852;51.446;6.528;2023-06-26T02:57:59;24.00;98.60
27858;DHT22;16852;51.446;6.528;2023-06-26T03:00:00;24.00;98.80
27858;DHT22;16852;51.446;6.528;2023-06-26T03:02:00;24.00;99.10
27858;DHT22;16852;51.446;6.528;2023-06-26T03:04:01;23.90;98.90
27858;DHT22;16852;51.446;6.528;2023-06-26T03:06:02;23.90;98.70
27858;DHT22;16852;51.446;6.528;2023-06-26T03:08:02;23.80;98.70
27858;DHT22;16852;51.446;6.528;2023-06-26T03:10:03;23.80;99.30
27858;DHT22;16852;51.446;6.528;2023-06-26T03:12:05;23.80;99.60
27858;DHT22;16852;51.446;6.528;2023-06-26T03:14:06;23.80;99.50
27858;DHT22;16852;51.446;6.528;2023-06-26T03:16:07;23.80;99.40
27858;DHT22;16852;51.446;6.528;2023-06-26T03:18:07;23.80;99.70
27858;DHT22;16852;51.446;6.528;2023-06-26T03:20:09;23.80;99.90
27858;DHT22;16852;51.446;6.528;2023-06-26T03:22:11;23.90;99.90
27858;DHT22;16852;51.446;6.528;2023-06-26T03:24:11;23.80;99.80
27858;DHT22;16852;51.446;6.528;2023-06-26T03:26:12;23.80;99.90
27858;DHT22;16852;51.446;6.528;2023-06-26T03:28:15;23.90;99.90
27858;DHT22;16852;51.446;6.528;2023-06-26T03:30:15;23.80;99.90
27858;DHT22;16852;51.446;6.528;2023-06-26T03:32:16;23.80;99.20
27858;DHT22;16852;51.446;6.528;2023-06-26T03:34:16;23.70;98.60
27858;DHT22;16852;51.446;6.528;2023-06-26T03:36:17;23.70;99.00
27858;DHT22;16852;51.446;6.528;2023-06-26T03:38:17;23.70;99.10
27858;DHT22;16852;51.446;6.528;2023-06-26T03:40:18;23.60;99.00
27858;DHT22;16852;51.446;6.528;2023-06-26T03:42:19;23.60;99.90
27858;DHT22;16852;51.446;6.528;2023-06-26T03:44:19;23.50;99.50
27858;DHT22;16852;51.446;6.528;2023-06-26T03:46:20;23.50;99.20
27858;DHT22;16852;51.446;6.528;2023-06-26T03:48:20;23.50;98.90
27858;DHT22;16852;51.446;6.528;2023-06-26T03:50:21;23.40;98.70
27858;DHT22;16852;51.446;6.528;2023-06-26T03:52:22;23.40;99.10
27858;DHT22;16852;51.446;6.528;2023-06-26T03:54:22;23.40;99.10
27858;DHT22;16852;51.446;6.528;2023-06-26T03:56:23;23.40;98.80
27858;DHT22;16852;51.446;6.528;2023-06-26T03:58:23;23.40;98.90
27858;DHT22;16852;51.446;6.528;2023-06-26T04:00:25;23.40;98.50
27858;DHT22;16852;51.446;6.528;2023-06-26T04:02:25;23.30;98.30
27858;DHT22;16852;51.446;6.528;2023-06-26T04:04:26;23.30;98.20
27858;DHT22;16852;51.446;6.528;2023-06-26T04:06:27;23.20;98.30
27858;DHT22;16852;51.446;6.528;2023-06-26T04:08:28;23.20;98.10
27858;DHT22;16852;51.446;6.528;2023-06-26T04:10:28;23.20;98.30
27858;DHT22;16852;51.446;6.528;2023-06-26T04:12:29;23.20;98.10
27858;DHT22;16852;51.446;6.528;2023-06-26T04:14:29;23.10;98.40
27858;DHT22;16852;51.446;6.528;2023-06-26T04:16:30;23.20;99.10
27858;DHT22;16852;51.446;6.528;2023-06-26T04:18:31;23.10;98.30
27858;DHT22;16852;51.446;6.528;2023-06-26T04:20:31;23.10;98.50
27858;DHT22;16852;51.446;6.528;2023-06-26T04:22:33;23.10;98.50
27858;DHT22;16852;51.446;6.528;2023-06-26T04:24:34;23.10;99.80
27858;DHT22;16852;51.446;6.528;2023-06-26T04:26:34;23.20;99.40
27858;DHT22;16852;51.446;6.528;2023-06-26T04:28:36;23.20;98.90
27858;DHT22;16852;51.446;6.528;2023-06-26T04:30:36;23.30;98.70
27858;DHT22;16852;51.446;6.528;2023-06-26T04:32:38;23.30;98.50
27858;DHT22;16852;51.446;6.528;2023-06-26T04:34:39;23.30;99.10
27858;DHT22;16852;51.446;6.528;2023-06-26T04:36:43;23.30;99.40
27858;DHT22;16852;51.446;6.528;2023-06-26T04:38:48;23.30;99.30
27858;DHT22;16852;51.446;6.528;2023-06-26T04:40:50;23.30;99.30
27858;DHT22;16852;51.446;6.528;2023-06-26T04:42:50;23.30;99.70
27858;DHT22;16852;51.446;6.528;2023-06-26T04:44:51;23.30;99.90
27858;DHT22;16852;51.446;6.528;2023-06-26T04:46:51;23.20;99.70
27858;DHT22;16852;51.446;6.528;2023-06-26T04:48:52;23.30;99.90
27858;DHT22;16852;51.446;6.528;2023-06-26T04:50:54;23.30;99.80
27858;DHT22;16852;51.446;6.528;2023-06-26T04:52:55;23.20;99.40
27858;DHT22;16852;51.446;6.528;2023-06-26T04:54:56;23.30;99.90
27858;DHT22;16852;51.446;6.528;2023-06-26T04:56:56;23.30;99.90
27858;DHT22;16852;51.446;6.528;2023-06-26T04:58:57;23.30;99.90
27858;DHT22;16852;51.446;6.528;2023-06-26T05:00:58;23.30;99.90
27858;DHT22;16852;51.446;6.528;2023-06-26T05:02:59;23.30;99.80
27858;DHT22;16852;51.446;6.528;2023-06-26T05:05:01;23.20;99.90
27858;DHT22;16852;51.446;6.528;2023-06-26T05:07:01;23.30;99.90
27858;DHT22;16852;51.446;6.528;2023-06-26T05:09:02;23.20;99.80
27858;DHT22;16852;51.446;6.528;2023-06-26T05:11:03;23.20;99.90
27858;DHT22;16852;51.446;6.528;2023-06-26T05:13:03;23.10;99.90
27858;DHT22;16852;51.446;6.528;2023-06-26T05:15:04;23.10;99.90
27858;DHT22;16852;51.446;6.528;2023-06-26T05:17:05;23.10;99.90
27858;DHT22;16852;51.446;6.528;2023-06-26T05:19:05;23.00;99.90
27858;DHT22;16852;51.446;6.528;2023-06-26T05:21:06;23.10;99.90
27858;DHT22;16852;51.446;6.528;2023-06-26T05:23:07;23.10;99.90
27858;DHT22;16852;51.446;6.528;2023-06-26T05:25:09;23.10;99.90
27858;DHT22;16852;51.446;6.528;2023-06-26T05:27:11;23.10;99.90
27858;DHT22;16852;51.446;6.528;2023-06-26T05:29:19;23.00;99.90
27858;DHT22;16852;51.446;6.528;2023-06-26T05:31:20;23.00;99.90
27858;DHT22;16852;51.446;6.528;2023-06-26T05:33:23;23.00;99.90
27858;DHT22;16852;51.446;6.528;2023-06-26T05:35:27;23.00;99.90
27858;DHT22;16852;51.446;6.528;2023-06-26T05:37:28;22.90;99.90
27858;DHT22;16852;51.446;6.528;2023-06-26T05:39:29;22.80;99.90
27858;DHT22;16852;51.446;6.528;2023-06-26T05:41:31;22.80;99.90
27858;DHT22;16852;51.446;6.528;2023-06-26T05:43:32;22.70;99.90
27858;DHT22;16852;51.446;6.528;2023-06-26T05:45:33;22.80;99.90
27858;DHT22;16852;51.446;6.528;2023-06-26T05:47:34;22.70;99.90
27858;DHT22;16852;51.446;6.528;2023-06-26T05:49:34;22.80;99.90
27858;DHT22;16852;51.446;6.528;2023-06-26T05:51:35;22.80;99.90
27858;DHT22;16852;51.446;6.528;2023-06-26T05:53:36;22.90;99.90
27858;DHT22;16852;51.446;6.528;2023-06-26T05:55:37;22.90;99.90
27858;DHT22;16852;51.446;6.528;2023-06-26T05:57:39;22.90;99.90
27858;DHT22;16852;51.446;6.528;2023-06-26T05:59:40;22.90;99.90
27858;DHT22;16852;51.446;6.528;2023-06-26T06:01:43;22.90;99.90
27858;DHT22;16852;51.446;6.528;2023-06-26T06:03:43;22.90;99.90
27858;DHT22;16852;51.446;6.528;2023-06-26T06:05:44;23.00;99.90
27858;DHT22;16852;51.446;6.528;2023-06-26T06:07:45;23.20;99.90
27858;DHT22;16852;51.446;6.528;2023-06-26T06:09:45;23.40;99.90
27858;DHT22;16852;51.446;6.528;2023-06-26T06:11:46;23.70;99.90
27858;DHT22;16852;51.446;6.528;2023-06-26T06:13:46;23.90;99.90
27858;DHT22;16852;51.446;6.528;2023-06-26T06:15:47;24.10;99.90
27858;DHT22;16852;51.446;6.528;2023-06-26T06:17:48;24.30;99.90
27858;DHT22;16852;51.446;6.528;2023-06-26T06:19:49;24.50;99.90
27858;DHT22;16852;51.446;6.528;2023-06-26T06:21:49;24.70;99.90
27858;DHT22;16852;51.446;6.528;2023-06-26T06:23:50;24.60;99.90
27858;DHT22;16852;51.446;6.528;2023-06-26T06:25:50;24.60;99.40
27858;DHT22;16852;51.446;6.528;2023-06-26T06:27:51;24.50;99.80
27858;DHT22;16852;51.446;6.528;2023-06-26T06:29:52;24.50;99.90
27858;DHT22;16852;51.446;6.528;2023-06-26T06:31:52;24.50;99.90
27858;DHT22;16852;51.446;6.528;2023-06-26T06:33:53;24.50;99.90
27858;DHT22;16852;51.446;6.528;2023-06-26T06:35:53;24.40;99.90
27858;DHT22;16852;51.446;6.528;2023-06-26T06:37:54;24.30;99.90
27858;DHT22;16852;51.446;6.528;2023-06-26T06:39:55;24.30;99.90
27858;DHT22;16852;51.446;6.528;2023-06-26T06:41:55;24.20;99.90
27858;DHT22;16852;51.446;6.528;2023-06-26T06:43:57;24.20;99.90
27858;DHT22;16852;51.446;6.528;2023-06-26T06:45:58;24.10;99.90
27858;DHT22;16852;51.446;6.528;2023-06-26T06:47:58;24.00;99.90
27858;DHT22;16852;51.446;6.528;2023-06-26T06:50:00;23.80;99.90
27858;DHT22;16852;51.446;6.528;2023-06-26T06:52:08;23.70;99.90
27858;DHT22;16852;51.446;6.528;2023-06-26T06:54:09;23.70;99.90
27858;DHT22;16852;51.446;6.528;2023-06-26T06:56:09;23.60;99.90
27858;DHT22;16852;51.446;6.528;2023-06-26T06:58:10;23.70;99.90
27858;DHT22;16852;51.446;6.528;2023-06-26T07:00:12;23.70;99.90
27858;DHT22;16852;51.446;6.528;2023-06-26T07:02:16;23.70;99.90
27858;DHT22;16852;51.446;6.528;2023-06-26T07:04:17;23.80;99.90
27858;DHT22;16852;51.446;6.528;2023-06-26T07:06:18;23.80;99.90
27858;DHT22;16852;51.446;6.528;2023-06-26T07:08:18;23.80;99.90
27858;DHT22;16852;51.446;6.528;2023-06-26T07:10:19;23.90;99.90
27858;DHT22;16852;51.446;6.528;2023-06-26T07:12:20;23.90;99.90
27858;DHT22;16852;51.446;6.528;2023-06-26T07:14:20;24.00;99.90
27858;DHT22;16852;51.446;6.528;2023-06-26T07:16:21;24.00;99.90
27858;DHT22;16852;51.446;6.528;2023-06-26T07:18:21;24.10;99.90
27858;DHT22;16852;51.446;6.528;2023-06-26T07:20:22;24.10;99.90
27858;DHT22;16852;51.446;6.528;2023-06-26T07:22:23;24.10;99.90
27858;DHT22;16852;51.446;6.528;2023-06-26T07:24:23;24.20;99.90
27858;DHT22;16852;51.446;6.528;2023-06-26T07:26:33;24.10;99.90
27858;DHT22;16852;51.446;6.528;2023-06-26T07:28:52;24.10;99.90
27858;DHT22;16852;51.446;6.528;2023-06-26T07:31:13;24.10;99.90
27858;DHT22;16852;51.446;6.528;2023-06-26T07:33:32;24.10;99.90
27858;DHT22;16852;51.446;6.528;2023-06-26T07:35:51;24.10;99.90
27858;DHT22;16852;51.446;6.528;2023-06-26T07:38:11;24.10;99.90
27858;DHT22;16852;51.446;6.528;2023-06-26T07:40:30;24.20;99.90
27858;DHT22;16852;51.446;6.528;2023-06-26T07:42:49;24.40;99.90
27858;DHT22;16852;51.446;6.528;2023-06-26T07:45:09;24.50;99.90
27858;DHT22;16852;51.446;6.528;2023-06-26T07:47:30;24.60;99.90
27858;DHT22;16852;51.446;6.528;2023-06-26T07:49:50;24.70;99.90
27858;DHT22;16852;51.446;6.528;2023-06-26T07:52:09;24.70;99.90
27858;DHT22;16852;51.446;6.528;2023-06-26T07:54:31;24.70;99.90
27858;DHT22;16852;51.446;6.528;2023-06-26T07:56:59;24.80;99.90
27858;DHT22;16852;51.446;6.528;2023-06-26T07:59:18;24.80;99.90
27858;DHT22;16852;51.446;6.528;2023-06-26T08:01:38;24.80;99.90
27858;DHT22;16852;51.446;6.528;2023-06-26T08:03:57;24.70;99.90
27858;DHT22;16852;51.446;6.528;2023-06-26T08:06:16;24.50;99.80
27858;DHT22;16852;51.446;6.528;2023-06-26T08:08:35;24.50;99.90
27858;DHT22;16852;51.446;6.528;2023-06-26T08:10:54;24.40;99.90
27858;DHT22;16852;51.446;6.528;2023-06-26T08:13:14;24.40;99.90
27858;DHT22;16852;51.446;6.528;2023-06-26T08:15:33;24.40;99.90
27858;DHT22;16852;51.446;6.528;2023-06-26T08:17:52;24.40;99.90
27858;DHT22;16852;51.446;6.528;2023-06-26T08:20:11;24.40;99.90
27858;DHT22;16852;51.446;6.528;2023-06-26T08:22:31;24.40;99.90
27858;DHT22;16852;51.446;6.528;2023-06-26T08:24:50;24.50;99.90
27858;DHT22;16852;51.446;6.528;2023-06-26T08:27:09;24.60;99.90
27858;DHT22;16852;51.446;6.528;2023-06-26T08:29:28;24.60;99.90
27858;DHT22;16852;51.446;6.528;2023-06-26T08:31:48;24.60;99.30
27858;DHT22;16852;51.446;6.528;2023-06-26T08:34:07;24.60;99.90
27858;DHT22;16852;51.446;6.528;2023-06-26T08:36:27;24.70;99.60
27858;DHT22;16852;51.446;6.528;2023-06-26T08:38:46;24.70;99.30
27858;DHT22;16852;51.446;6.528;2023-06-26T08:41:05;24.70;99.70
27858;DHT22;16852;51.446;6.528;2023-06-26T08:43:25;24.70;99.70
27858;DHT22;16852;51.446;6.528;2023-06-26T08:45:45;24.70;99.60
27858;DHT22;16852;51.446;6.528;2023-06-26T08:48:08;24.80;98.90
27858;DHT22;16852;51.446;6.528;2023-06-26T08:50:30;24.80;99.90
27858;DHT22;16852;51.446;6.528;2023-06-26T08:53:04;24.90;99.90
27858;DHT22;16852;51.446;6.528;2023-06-26T08:55:27;24.90;99.60
27858;DHT22;16852;51.446;6.528;2023-06-26T08:57:47;25.00;98.80
27858;DHT22;16852;51.446;6.528;2023-06-26T09:00:07;25.00;98.10
27858;DHT22;16852;51.446;6.528;2023-06-26T09:02:28;24.90;98.50
27858;DHT22;16852;51.446;6.528;2023-06-26T09:04:47;25.10;99.00
27858;DHT22;16852;51.446;6.528;2023-06-26T09:07:08;25.20;99.90
27858;DHT22;16852;51.446;6.528;2023-06-26T09:09:28;25.30;99.80
27858;DHT22;16852;51.446;6.528;2023-06-26T09:11:47;25.40;99.90
27858;DHT22;16852;51.446;6.528;2023-06-26T09:14:07;25.60;99.90
27858;DHT22;16852;51.446;6.528;2023-06-26T09:16:29;25.70;97.70
27858;DHT22;16852;51.446;6.528;2023-06-26T09:18:48;25.80;99.10
27858;DHT22;16852;51.446;6.528;2023-06-26T09:21:09;25.80;97.50
27858;DHT22;16852;51.446;6.528;2023-06-26T09:23:28;25.70;97.20
27858;DHT22;16852;51.446;6.528;2023-06-26T09:25:47;25.80;98.20
27858;DHT22;16852;51.446;6.528;2023-06-26T09:28:07;25.80;98.40
27858;DHT22;16852;51.446;6.528;2023-06-26T09:30:26;25.90;97.70
27858;DHT22;16852;51.446;6.528;2023-06-26T09:32:46;25.90;96.40
27858;DHT22;16852;51.446;6.528;2023-06-26T09:35:06;26.10;97.70
27858;DHT22;16852;51.446;6.528;2023-06-26T09:37:26;26.20;98.00
27858;DHT22;16852;51.446;6.528;2023-06-26T09:39:45;26.10;97.50
27858;DHT22;16852;51.446;6.528;2023-06-26T09:42:04;26.10;96.10
27858;DHT22;16852;51.446;6.528;2023-06-26T09:44:25;26.10;95.40
27858;DHT22;16852;51.446;6.528;2023-06-26T09:46:45;26.00;95.70
27858;DHT22;16852;51.446;6.528;2023-06-26T09:49:09;26.00;95.30
27858;DHT22;16852;51.446;6.528;2023-06-26T09:51:33;26.00;95.90
27858;DHT22;16852;51.446;6.528;2023-06-26T09:53:53;26.00;95.70
27858;DHT22;16852;51.446;6.528;2023-06-26T09:56:16;26.10;96.50
27858;DHT22;16852;51.446;6.528;2023-06-26T09:58:36;26.20;96.20
27858;DHT22;16852;51.446;6.528;2023-06-26T10:00:56;26.20;95.30
27858;DHT22;16852;51.446;6.528;2023-06-26T10:03:15;26.10;94.80
27858;DHT22;16852;51.446;6.528;2023-06-26T10:05:34;26.20;95.50
27858;DHT22;16852;51.446;6.528;2023-06-26T10:07:54;26.20;96.40
27858;DHT22;16852;51.446;6.528;2023-06-26T10:10:16;26.20;96.00
27858;DHT22;16852;51.446;6.528;2023-06-26T10:12:36;26.20;95.90
27858;DHT22;16852;51.446;6.528;2023-06-26T10:14:58;26.10;94.30
27858;DHT22;16852;51.446;6.528;2023-06-26T10:17:19;26.10;95.40
27858;DHT22;16852;51.446;6.528;2023-06-26T10:19:43;26.10;95.10
27858;DHT22;16852;51.446;6.528;2023-06-26T10:22:03;26.10;94.40
27858;DHT22;16852;51.446;6.528;2023-06-26T10:24:23;26.00;94.60
27858;DHT22;16852;51.446;6.528;2023-06-26T10:26:45;25.70;93.70
27858;DHT22;16852;51.446;6.528;2023-06-26T10:29:06;25.70;92.20
27858;DHT22;16852;51.446;6.528;2023-06-26T10:31:26;25.60;92.30
27858;DHT22;16852;51.446;6.528;2023-06-26T10:33:48;25.60;93.90
27858;DHT22;16852;51.446;6.528;2023-06-26T10:36:19;25.60;92.70
27858;DHT22;16852;51.446;6.528;2023-06-26T10:38:52;25.60;93.40
27858;DHT22;16852;51.446;6.528;2023-06-26T10:41:13;25.60;94.00
27858;DHT22;16852;51.446;6.528;2023-06-26T10:43:34;25.70;94.10
27858;DHT22;16852;51.446;6.528;2023-06-26T10:45:54;25.70;93.10
27858;DHT22;16852;51.446;6.528;2023-06-26T10:48:17;25.80;92.20
27858;DHT22;16852;51.446;6.528;2023-06-26T10:50:36;25.90;92.90
27858;DHT22;16852;51.446;6.528;2023-06-26T10:53:09;26.00;93.50
27858;DHT22;16852;51.446;6.528;2023-06-26T10:55:28;26.10;93.90
27858;DHT22;16852;51.446;6.528;2023-06-26T10:57:48;26.30;94.90
27858;DHT22;16852;51.446;6.528;2023-06-26T11:00:14;26.40;92.40
27858;DHT22;16852;51.446;6.528;2023-06-26T11:02:50;26.50;92.50
27858;DHT22;16852;51.446;6.528;2023-06-26T11:05:10;26.40;92.30
27858;DHT22;16852;51.446;6.528;2023-06-26T11:07:29;26.30;92.40
27858;DHT22;16852;51.446;6.528;2023-06-26T11:10:09;26.30;91.00
27858;DHT22;16852;51.446;6.528;2023-06-26T11:14:58;26.30;91.20
27858;DHT22;16852;51.446;6.528;2023-06-26T11:17:18;26.20;90.10
27858;DHT22;16852;51.446;6.528;2023-06-26T11:19:42;26.20;91.20
27858;DHT22;16852;51.446;6.528;2023-06-26T11:22:02;26.20;88.90
27858;DHT22;16852;51.446;6.528;2023-06-26T11:24:23;25.90;87.60
27858;DHT22;16852;51.446;6.528;2023-06-26T11:26:44;25.80;89.90
27858;DHT22;16852;51.446;6.528;2023-06-26T11:29:03;25.70;90.90
27858;DHT22;16852;51.446;6.528;2023-06-26T11:33:52;25.70;90.20
27858;DHT22;16852;51.446;6.528;2023-06-26T11:36:11;25.60;91.60
27858;DHT22;16852;51.446;6.528;2023-06-26T11:38:37;25.70;89.40
27858;DHT22;16852;51.446;6.528;2023-06-26T11:40:56;25.70;89.00
27858;DHT22;16852;51.446;6.528;2023-06-26T11:43:16;25.70;89.60
27858;DHT22;16852;51.446;6.528;2023-06-26T11:45:36;25.80;86.30
27858;DHT22;16852;51.446;6.528;2023-06-26T11:47:59;25.80;87.70
27858;DHT22;16852;51.446;6.528;2023-06-26T11:50:18;25.80;83.90
27858;DHT22;16852;51.446;6.528;2023-06-26T11:52:41;25.90;83.80
27858;DHT22;16852;51.446;6.528;2023-06-26T11:55:00;26.00;86.10
27858;DHT22;16852;51.446;6.528;2023-06-26T11:57:19;26.10;85.20
27858;DHT22;16852;51.446;6.528;2023-06-26T11:59:40;26.10;84.00
27858;DHT22;16852;51.446;6.528;2023-06-26T12:01:59;26.20;80.00
27858;DHT22;16852;51.446;6.528;2023-06-26T12:04:19;26.30;85.90
27858;DHT22;16852;51.446;6.528;2023-06-26T12:06:40;26.30;84.70
27858;DHT22;16852;51.446;6.528;2023-06-26T12:09:07;26.20;84.90
27858;DHT22;16852;51.446;6.528;2023-06-26T12:11:29;26.10;80.40
27858;DHT22;16852;51.446;6.528;2023-06-26T12:13:49;26.00;85.80
27858;DHT22;16852;51.446;6.528;2023-06-26T12:16:09;26.00;81.90
27858;DHT22;16852;51.446;6.528;2023-06-26T12:18:35;26.00;78.90
27858;DHT22;16852;51.446;6.528;2023-06-26T12:20:55;26.10;83.00
27858;DHT22;16852;51.446;6.528;2023-06-26T12:23:14;26.10;80.70
27858;DHT22;16852;51.446;6.528;2023-06-26T12:25:33;26.20;81.70
27858;DHT22;16852;51.446;6.528;2023-06-26T12:27:52;26.30;81.40
27858;DHT22;16852;51.446;6.528;2023-06-26T12:30:12;26.40;83.20
27858;DHT22;16852;51.446;6.528;2023-06-26T12:32:31;26.50;80.20
27858;DHT22;16852;51.446;6.528;2023-06-26T12:34:50;26.50;81.60
27858;DHT22;16852;51.446;6.528;2023-06-26T12:37:11;26.40;79.00
27858;DHT22;16852;51.446;6.528;2023-06-26T12:39:54;26.40;78.10
27858;DHT22;16852;51.446;6.528;2023-06-26T12:42:14;26.40;77.60
27858;DHT22;16852;51.446;6.528;2023-06-26T12:44:34;26.50;82.90
27858;DHT22;16852;51.446;6.528;2023-06-26T12:47:02;26.50;80.70
27858;DHT22;16852;51.446;6.528;2023-06-26T12:49:38;26.50;81.80
27858;DHT22;16852;51.446;6.528;2023-06-26T12:51:59;26.30;82.40
27858;DHT22;16852;51.446;6.528;2023-06-26T12:54:19;26.30;82.40
27858;DHT22;16852;51.446;6.528;2023-06-26T12:56:39;26.20;83.70
27858;DHT22;16852;51.446;6.528;2023-06-26T12:58:58;26.20;79.20
27858;DHT22;16852;51.446;6.528;2023-06-26T13:01:17;26.00;80.90
27858;DHT22;16852;51.446;6.528;2023-06-26T13:03:39;26.10;81.30
27858;DHT22;16852;51.446;6.528;2023-06-26T13:05:59;26.20;81.80
27858;DHT22;16852;51.446;6.528;2023-06-26T13:08:18;26.20;80.80
27858;DHT22;16852;51.446;6.528;2023-06-26T13:10:37;26.10;82.30
27858;DHT22;16852;51.446;6.528;2023-06-26T13:12:58;26.00;80.00
27858;DHT22;16852;51.446;6.528;2023-06-26T13:15:17;26.00;82.90
27858;DHT22;16852;51.446;6.528;2023-06-26T13:17:18;26.00;82.90
27858;DHT22;16852;51.446;6.528;2023-06-26T13:19:18;25.90;81.90
27858;DHT22;16852;51.446;6.528;2023-06-26T13:21:19;25.80;82.70
27858;DHT22;16852;51.446;6.528;2023-06-26T13:23:19;25.80;81.60
27858;DHT22;16852;51.446;6.528;2023-06-26T13:25:21;25.80;82.10
27858;DHT22;16852;51.446;6.528;2023-06-26T13:27:21;25.90;84.60
27858;DHT22;16852;51.446;6.528;2023-06-26T13:29:22;25.90;79.50
27858;DHT22;16852;51.446;6.528;2023-06-26T13:31:22;25.80;81.70
27858;DHT22;16852;51.446;6.528;2023-06-26T13:33:23;25.80;82.40
27858;DHT22;16852;51.446;6.528;2023-06-26T13:35:27;25.80;81.10
27858;DHT22;16852;51.446;6.528;2023-06-26T13:37:28;25.80;78.40
27858;DHT22;16852;51.446;6.528;2023-06-26T13:39:29;25.70;80.50
27858;DHT22;16852;51.446;6.528;2023-06-26T13:41:29;25.60;80.80